La Madera, New Mexico
Current Conditions -  °F | °C
As of 11:55 AM on Wednesday 26 Nov 2014 (Local Time) from KSKX Reporting Station
Clear Clear  
Wind Chill: 37°   Ceiling: Unl
Heat Index: 41°   Visibility: 10mi
Dew Point: 21°   Wind: 6mph
Humidity: 45%   Direction: 220°SW
Pressure: 30.36"   Gusts: NA
Location:  36.39°N, 106.04°W
Report Text: KSKX 261855Z AUTO 22005KT 10SM CLR 05/M06 A3036 RMK AO1
Loading
Personal Weather Stations






























Interactive Weather Map New forecast layout! Learn more

10-Day Weather Forecast

Advertisements
Track Severe Weather on mobile